Snav Lazio — IBUH — position and weather

sailwx.info

Track history (hours):
 
Tides and Currents Weather Stations Pressure Air Temp Water Temp Dewpoint Dewpoint Depression Visibility Wind Speed Wind Dir Waves Ship Positions

Snav Lazio

Last reported at 2016-May-01 19:34 UTC. Time now 2016-May-02 08:15 UTC.
Position N 38°28' E 013°31'.

Length 162 m; draft 6 m.

Type: Passenger vessel. MMSI: 247163100.

Date/timePositionNaut miles runAvg speedWind from/ knotsBaromVisibWave heightAir tempDewpointWater temp
2016-May-01 19:34N 38°28' E 013°31'1818.4
2016-May-01 18:34N 38°10' E 013°26'4 3.8
2016-May-01 17:33N 38°08' E 013°22'0 0.0
2016-May-01 16:33N 38°08' E 013°22'0 0.0
2016-May-01 15:33N 38°08' E 013°22'0 0.0
2016-May-01 14:33N 38°08' E 013°22'0 0.0
2016-May-01 13:33N 38°08' E 013°22'0 0.0
2016-May-01 12:33N 38°08' E 013°22'0 0.0
2016-May-01 11:33N 38°08' E 013°22'0 0.0
2016-May-01 10:33N 38°08' E 013°22'0 0.0
2016-May-01 09:33N 38°08' E 013°22'0 0.0
2016-May-01 08:33N 38°08' E 013°22'0 0.0
2016-May-01 07:33N 38°08' E 013°22'0 0.0
2016-May-01 06:33N 38°08' E 013°22'0 0.0
2016-May-01 05:33N 38°08' E 013°22'0 0.0
2016-May-01 04:33N 38°08' E 013°22'6 5.8
2016-May-01 03:34N 38°13' E 013°26'1817.6
2016-May-01 02:34N 38°30' E 013°31'1717.2
2016-May-01 01:33N 38°47' E 013°36'1817.7
2016-May-01 00:33N 39°04' E 013°41'1817.8
2016-Apr-30 23:32N 39°22' E 013°46'1717.7
2016-Apr-30 22:34N 39°39' E 013°51'1817.7
2016-Apr-30 21:34N 39°56' E 013°56'2517.9
2016-Apr-30 20:08N 40°21' E 014°03'1117.8
2016-Apr-30 19:33N 40°31' E 014°07'1817.9
2016-Apr-30 18:33N 40°47' E 014°16'3 3.1
2016-Apr-30 17:33N 40°50' E 014°16'0 0.0
2016-Apr-30 16:30N 40°50' E 014°16'0 0.0
2016-Apr-30 13:18N 40°50' E 014°16'0 0.0
2016-Apr-30 12:18N 40°50' E 014°16'0 0.0
2016-Apr-30 11:30N 40°50' E 014°16'56 5.1
2016-Apr-30 00:34N 39°57' E 013°55'1818.3
2016-Apr-29 23:33N 39°39' E 013°48'3718.1
2016-Apr-29 21:32N 39°03' E 013°39'3618.3
2016-Apr-29 19:33N 38°27' E 013°30'1818.0
2016-Apr-29 18:34N 38°10' E 013°26'4 3.6
2016-Apr-29 17:31N 38°08' E 013°22'0 0.0
2016-Apr-29 16:31N 38°08' E 013°22'0 0.0
2016-Apr-29 15:31N 38°08' E 013°22'0 0.0
2016-Apr-29 14:31N 38°08' E 013°22'0 0.0
2016-Apr-29 13:31N 38°08' E 013°22'0 0.0
2016-Apr-29 12:31N 38°08' E 013°22'0 0.0
2016-Apr-29 11:28N 38°08' E 013°22'0 0.0
2016-Apr-29 10:31N 38°08' E 013°22'0 0.0
2016-Apr-29 09:31N 38°08' E 013°22'0 0.0
2016-Apr-29 08:31N 38°08' E 013°22'0 0.0
2016-Apr-29 07:31N 38°08' E 013°22'0 0.0
2016-Apr-29 06:31N 38°08' E 013°22'0 0.0
2016-Apr-29 05:31N 38°08' E 013°22'0 0.0
2016-Apr-29 04:33N 38°08' E 013°22'1111.2
2016-Apr-29 03:33N 38°18' E 013°27'1818.4
2016-Apr-29 02:33N 38°36' E 013°33'3617.9
2016-Apr-29 00:33N 39°11' E 013°41'5918.4
2016-Apr-28 21:20N 40°09' E 013°59'1418.3
2016-Apr-28 20:33N 40°23' E 014°03'1818.4
2016-Apr-28 19:33N 40°40' E 014°11'11 0.7
2016-Apr-28 04:30N 40°50' E 014°16'8 8.3
2016-Apr-28 03:33N 40°43' E 014°13'1818.4
2016-Apr-28 02:34N 40°26' E 014°05'11118.0
2016-Apr-27 20:26N 38°38' E 013°33'1618.5
2016-Apr-27 19:34N 38°22' E 013°29'1515.5
2016-Apr-27 18:34N 38°07' E 013°23'1 1.0
2016-Apr-27 17:31N 38°08' E 013°22'0 0.0
2016-Apr-27 16:31N 38°08' E 013°22'0 0.0
2016-Apr-27 15:31N 38°08' E 013°22'0 0.0
2016-Apr-27 14:32N 38°08' E 013°22'0 0.0
2016-Apr-27 13:31N 38°08' E 013°22'0 0.0
2016-Apr-27 12:31N 38°08' E 013°22'0 0.0
2016-Apr-27 11:31N 38°08' E 013°22'0 0.0
2016-Apr-27 10:31N 38°08' E 013°22'0 0.0
2016-Apr-27 09:31N 38°08' E 013°22'0 0.0
2016-Apr-27 08:31N 38°08' E 013°22'0 0.0
2016-Apr-27 07:32N 38°08' E 013°22'0 0.0
2016-Apr-27 06:31N 38°08' E 013°22'0 0.0
2016-Apr-27 05:34N 38°08' E 013°22'1 1.0
2016-Apr-27 04:33N 38°07' E 013°23'1616.0
2016-Apr-27 03:33N 38°23' E 013°28'1817.6
2016-Apr-27 02:33N 38°40' E 013°34'9517.6
2016-Apr-26 21:08N 40°12' E 014°01'1017.8
2016-Apr-26 20:33N 40°23' E 014°05'1817.7
2016-Apr-26 19:33N 40°40' E 014°11'1111.3
2016-Apr-26 18:33N 40°50' E 014°16'0 0.0
2016-Apr-26 06:31N 40°50' E 014°16'7 7.6
2016-Apr-26 05:33N 40°43' E 014°14'1818.1
2016-Apr-26 04:33N 40°26' E 014°05'11217.4
2016-Apr-25 22:07N 38°37' E 013°33'916.4
2016-Apr-25 21:33N 38°28' E 013°31'1616.0
2016-Apr-25 20:33N 38°12' E 013°27'6 5.3
2016-Apr-25 19:31N 38°08' E 013°22'0 0.0
2016-Apr-25 18:31N 38°08' E 013°22'0 0.0
2016-Apr-25 17:31N 38°08' E 013°22'0 0.0
2016-Apr-25 16:31N 38°08' E 013°22'0 0.0
2016-Apr-25 15:28N 38°08' E 013°22'0 0.0
2016-Apr-25 14:31N 38°08' E 013°22'0 0.0
2016-Apr-25 13:31N 38°08' E 013°22'0 0.0
2016-Apr-25 12:31N 38°08' E 013°22'0 0.0
2016-Apr-25 11:31N 38°08' E 013°22'0 0.0
2016-Apr-25 10:31N 38°08' E 013°22'0 0.0
2016-Apr-25 09:31N 38°08' E 013°22'0 0.0
2016-Apr-25 08:31N 38°08' E 013°22'0 0.0
2016-Apr-25 07:31N 38°08' E 013°22'0 0.0
2016-Apr-25 06:31N 38°08' E 013°22'0 0.0
2016-Apr-25 05:31N 38°08' E 013°22'0 0.0
2016-Apr-25 04:33N 38°08' E 013°22'1212.1
2016-Apr-25 03:34N 38°18' E 013°31'1717.0
2016-Apr-25 02:33N 38°34' E 013°38'10217.0
2016-Apr-24 20:32N 40°14' E 014°03'1717.9
2016-Apr-24 19:33N 40°31' E 014°08'118 5.0
2016-Apr-23 20:05N 38°37' E 013°34'1018.0
2016-Apr-23 19:34N 38°28' E 013°31'1817.5
2016-Apr-23 18:34N 38°10' E 013°26'4 4.2
2016-Apr-23 17:32N 38°08' E 013°22'0 0.0
2016-Apr-23 16:32N 38°08' E 013°22'0 0.0
2016-Apr-23 15:32N 38°08' E 013°22'0 0.0
2016-Apr-23 14:32N 38°08' E 013°22'0 0.0
2016-Apr-23 13:32N 38°08' E 013°22'0 0.0
2016-Apr-23 12:32N 38°08' E 013°22'0 0.0
2016-Apr-23 11:32N 38°08' E 013°22'0 0.0
2016-Apr-23 10:32N 38°08' E 013°22'0 0.0
2016-Apr-23 09:32N 38°08' E 013°22'0 0.0
2016-Apr-23 08:32N 38°08' E 013°22'0 0.0
2016-Apr-23 07:32N 38°08' E 013°22'0 0.0
2016-Apr-23 06:33N 38°08' E 013°22'0 0.0
2016-Apr-23 05:33N 38°08' E 013°22'0 0.0
2016-Apr-23 04:34N 38°08' E 013°22'6 6.4
2016-Apr-23 03:34N 38°14' E 013°25'1817.6
2016-Apr-23 02:34N 38°31' E 013°31'1817.7
2016-Apr-23 01:34N 38°48' E 013°36'1817.9
2016-Apr-23 00:34N 39°05' E 013°41'1817.8
2016-Apr-22 23:32N 39°23' E 013°45'5417.7
2016-Apr-22 20:30N 40°15' E 014°01'1717.8
2016-Apr-22 19:33N 40°32' E 014°07'1717.6
2016-Apr-22 18:33N 40°48' E 014°16'3 0.5
2016-Apr-22 13:26N 40°50' E 014°16'0 0.0
2016-Apr-22 12:26N 40°50' E 014°16'0 0.0
2016-Apr-22 11:26N 40°50' E 014°16'0 0.0
2016-Apr-22 08:26N 40°50' E 014°16'0 0.0
2016-Apr-22 07:32N 40°50' E 014°16'0 0.1
2016-Apr-22 04:32N 40°50' E 014°16'1313.1
2016-Apr-22 03:33N 40°38' E 014°11'1717.2
2016-Apr-22 02:33N 40°22' E 014°04'10316.9
2016-Apr-21 20:27N 38°41' E 013°34'  
Track history (hours):
 
Tides and Currents Weather Stations Pressure Air Temp Water Temp Dewpoint Dewpoint Depression Visibility Wind Speed Wind Dir Waves Ship Positions

Snav Lazio

Last reported at 2016-May-01 19:34 UTC. Time now 2016-May-02 08:15 UTC.
Position N 38°28' E 013°31'.

Length 162 m; draft 6 m.

Type: Passenger vessel. MMSI: 247163100.

Date/timePositionNaut miles runAvg speedWind from/ knotsBaromVisibWave heightAir tempDewpointWater temp
2016-May-01 19:34N 38°28' E 013°31'1818.4
2016-May-01 18:34N 38°10' E 013°26'4 3.8
2016-May-01 17:33N 38°08' E 013°22'0 0.0
2016-May-01 16:33N 38°08' E 013°22'0 0.0
2016-May-01 15:33N 38°08' E 013°22'0 0.0
2016-May-01 14:33N 38°08' E 013°22'0 0.0
2016-May-01 13:33N 38°08' E 013°22'0 0.0
2016-May-01 12:33N 38°08' E 013°22'0 0.0
2016-May-01 11:33N 38°08' E 013°22'0 0.0
2016-May-01 10:33N 38°08' E 013°22'0 0.0
2016-May-01 09:33N 38°08' E 013°22'0 0.0
2016-May-01 08:33N 38°08' E 013°22'0 0.0
2016-May-01 07:33N 38°08' E 013°22'0 0.0
2016-May-01 06:33N 38°08' E 013°22'0 0.0
2016-May-01 05:33N 38°08' E 013°22'0 0.0
2016-May-01 04:33N 38°08' E 013°22'6 5.8
2016-May-01 03:34N 38°13' E 013°26'1817.6
2016-May-01 02:34N 38°30' E 013°31'1717.2
2016-May-01 01:33N 38°47' E 013°36'1817.7
2016-May-01 00:33N 39°04' E 013°41'1817.8
2016-Apr-30 23:32N 39°22' E 013°46'1717.7
2016-Apr-30 22:34N 39°39' E 013°51'1817.7
2016-Apr-30 21:34N 39°56' E 013°56'2517.9
2016-Apr-30 20:08N 40°21' E 014°03'1117.8
2016-Apr-30 19:33N 40°31' E 014°07'1817.9
2016-Apr-30 18:33N 40°47' E 014°16'3 3.1
2016-Apr-30 17:33N 40°50' E 014°16'0 0.0
2016-Apr-30 16:30N 40°50' E 014°16'0 0.0
2016-Apr-30 13:18N 40°50' E 014°16'0 0.0
2016-Apr-30 12:18N 40°50' E 014°16'0 0.0
2016-Apr-30 11:30N 40°50' E 014°16'56 5.1
2016-Apr-30 00:34N 39°57' E 013°55'1818.3
2016-Apr-29 23:33N 39°39' E 013°48'3718.1
2016-Apr-29 21:32N 39°03' E 013°39'3618.3
2016-Apr-29 19:33N 38°27' E 013°30'1818.0
2016-Apr-29 18:34N 38°10' E 013°26'4 3.6
2016-Apr-29 17:31N 38°08' E 013°22'0 0.0
2016-Apr-29 16:31N 38°08' E 013°22'0 0.0
2016-Apr-29 15:31N 38°08' E 013°22'0 0.0
2016-Apr-29 14:31N 38°08' E 013°22'0 0.0
2016-Apr-29 13:31N 38°08' E 013°22'0 0.0
2016-Apr-29 12:31N 38°08' E 013°22'0 0.0
2016-Apr-29 11:28N 38°08' E 013°22'0 0.0
2016-Apr-29 10:31N 38°08' E 013°22'0 0.0
2016-Apr-29 09:31N 38°08' E 013°22'0 0.0
2016-Apr-29 08:31N 38°08' E 013°22'0 0.0
2016-Apr-29 07:31N 38°08' E 013°22'0 0.0
2016-Apr-29 06:31N 38°08' E 013°22'0 0.0
2016-Apr-29 05:31N 38°08' E 013°22'0 0.0
2016-Apr-29 04:33N 38°08' E 013°22'1111.2
2016-Apr-29 03:33N 38°18' E 013°27'1818.4
2016-Apr-29 02:33N 38°36' E 013°33'3617.9
2016-Apr-29 00:33N 39°11' E 013°41'5918.4
2016-Apr-28 21:20N 40°09' E 013°59'1418.3
2016-Apr-28 20:33N 40°23' E 014°03'1818.4
2016-Apr-28 19:33N 40°40' E 014°11'11 0.7
2016-Apr-28 04:30N 40°50' E 014°16'8 8.3
2016-Apr-28 03:33N 40°43' E 014°13'1818.4
2016-Apr-28 02:34N 40°26' E 014°05'11118.0
2016-Apr-27 20:26N 38°38' E 013°33'1618.5
2016-Apr-27 19:34N 38°22' E 013°29'1515.5
2016-Apr-27 18:34N 38°07' E 013°23'1 1.0
2016-Apr-27 17:31N 38°08' E 013°22'0 0.0
2016-Apr-27 16:31N 38°08' E 013°22'0 0.0
2016-Apr-27 15:31N 38°08' E 013°22'0 0.0
2016-Apr-27 14:32N 38°08' E 013°22'0 0.0
2016-Apr-27 13:31N 38°08' E 013°22'0 0.0
2016-Apr-27 12:31N 38°08' E 013°22'0 0.0
2016-Apr-27 11:31N 38°08' E 013°22'0 0.0
2016-Apr-27 10:31N 38°08' E 013°22'0 0.0
2016-Apr-27 09:31N 38°08' E 013°22'0 0.0
2016-Apr-27 08:31N 38°08' E 013°22'0 0.0
2016-Apr-27 07:32N 38°08' E 013°22'0 0.0
2016-Apr-27 06:31N 38°08' E 013°22'0 0.0
2016-Apr-27 05:34N 38°08' E 013°22'1 1.0
2016-Apr-27 04:33N 38°07' E 013°23'1616.0
2016-Apr-27 03:33N 38°23' E 013°28'1817.6
2016-Apr-27 02:33N 38°40' E 013°34'9517.6
2016-Apr-26 21:08N 40°12' E 014°01'1017.8
2016-Apr-26 20:33N 40°23' E 014°05'1817.7
2016-Apr-26 19:33N 40°40' E 014°11'1111.3
2016-Apr-26 18:33N 40°50' E 014°16'0 0.0
2016-Apr-26 06:31N 40°50' E 014°16'7 7.6
2016-Apr-26 05:33N 40°43' E 014°14'1818.1
2016-Apr-26 04:33N 40°26' E 014°05'11217.4
2016-Apr-25 22:07N 38°37' E 013°33'916.4
2016-Apr-25 21:33N 38°28' E 013°31'1616.0
2016-Apr-25 20:33N 38°12' E 013°27'6 5.3
2016-Apr-25 19:31N 38°08' E 013°22'0 0.0
2016-Apr-25 18:31N 38°08' E 013°22'0 0.0
2016-Apr-25 17:31N 38°08' E 013°22'0 0.0
2016-Apr-25 16:31N 38°08' E 013°22'0 0.0
2016-Apr-25 15:28N 38°08' E 013°22'0 0.0
2016-Apr-25 14:31N 38°08' E 013°22'0 0.0
2016-Apr-25 13:31N 38°08' E 013°22'0 0.0
2016-Apr-25 12:31N 38°08' E 013°22'0 0.0
2016-Apr-25 11:31N 38°08' E 013°22'0 0.0
2016-Apr-25 10:31N 38°08' E 013°22'0 0.0
2016-Apr-25 09:31N 38°08' E 013°22'0 0.0
2016-Apr-25 08:31N 38°08' E 013°22'0 0.0
2016-Apr-25 07:31N 38°08' E 013°22'0 0.0
2016-Apr-25 06:31N 38°08' E 013°22'0 0.0
2016-Apr-25 05:31N 38°08' E 013°22'0 0.0
2016-Apr-25 04:33N 38°08' E 013°22'1212.1
2016-Apr-25 03:34N 38°18' E 013°31'1717.0
2016-Apr-25 02:33N 38°34' E 013°38'10217.0
2016-Apr-24 20:32N 40°14' E 014°03'1717.9
2016-Apr-24 19:33N 40°31' E 014°08'118 5.0
2016-Apr-23 20:05N 38°37' E 013°34'1018.0
2016-Apr-23 19:34N 38°28' E 013°31'1817.5
2016-Apr-23 18:34N 38°10' E 013°26'4 4.2
2016-Apr-23 17:32N 38°08' E 013°22'0 0.0
2016-Apr-23 16:32N 38°08' E 013°22'0 0.0
2016-Apr-23 15:32N 38°08' E 013°22'0 0.0
2016-Apr-23 14:32N 38°08' E 013°22'0 0.0
2016-Apr-23 13:32N 38°08' E 013°22'0 0.0
2016-Apr-23 12:32N 38°08' E 013°22'0 0.0
2016-Apr-23 11:32N 38°08' E 013°22'0 0.0
2016-Apr-23 10:32N 38°08' E 013°22'0 0.0
2016-Apr-23 09:32N 38°08' E 013°22'0 0.0
2016-Apr-23 08:32N 38°08' E 013°22'0 0.0
2016-Apr-23 07:32N 38°08' E 013°22'0 0.0
2016-Apr-23 06:33N 38°08' E 013°22'0 0.0
2016-Apr-23 05:33N 38°08' E 013°22'0 0.0
2016-Apr-23 04:34N 38°08' E 013°22'6 6.4
2016-Apr-23 03:34N 38°14' E 013°25'1817.6
2016-Apr-23 02:34N 38°31' E 013°31'1817.7
2016-Apr-23 01:34N 38°48' E 013°36'1817.9
2016-Apr-23 00:34N 39°05' E 013°41'1817.8
2016-Apr-22 23:32N 39°23' E 013°45'5417.7
2016-Apr-22 20:30N 40°15' E 014°01'1717.8
2016-Apr-22 19:33N 40°32' E 014°07'1717.6
2016-Apr-22 18:33N 40°48' E 014°16'3 0.5
2016-Apr-22 13:26N 40°50' E 014°16'0 0.0
2016-Apr-22 12:26N 40°50' E 014°16'0 0.0
2016-Apr-22 11:26N 40°50' E 014°16'0 0.0
2016-Apr-22 08:26N 40°50' E 014°16'0 0.0
2016-Apr-22 07:32N 40°50' E 014°16'0 0.1
2016-Apr-22 04:32N 40°50' E 014°16'1313.1
2016-Apr-22 03:33N 40°38' E 014°11'1717.2
2016-Apr-22 02:33N 40°22' E 014°04'10316.9
2016-Apr-21 20:27N 38°41' E 013°34'  

Dump ship's entire track history